Time;durP1;ratioP1;P1;durP2;ratioP2;P2;SDS_P1;SDS_P2;PMS_P1;PMS_P2;Temp;Humidity;BMP_temperature;BMP_pressure;BME280_temperature;BME280_humidity;BME280_pressure;Samples;Min_cycle;Max_cycle;Signal;HPM_P1;HPM_P2
2022/05/28 00:01:14;;;;;;;0.30;0.30;;;;;;;10.51;43.86;97355.38;5033671;28;20044;-66
2022/05/28 00:03:42;;;;;;;0.65;0.65;;;;;;;11.28;42.60;97346.38;5033664;28;20026;-65
2022/05/28 00:06:14;;;;;;;0.10;0.10;;;;;;;12.82;40.16;97345.09;5033797;28;20029;-72
2022/05/28 00:08:41;;;;;;;0.30;0.30;;;;;;;14.46;37.99;97345.47;5033070;28;20031;-70
2022/05/28 00:11:19;;;;;;;0.10;0.10;;;;;;;16.08;36.05;97345.09;5033478;28;20033;-67
2022/05/28 00:13:46;;;;;;;0.50;0.50;;;;;;;17.29;34.40;97334.75;5033352;28;20096;-66
2022/05/28 00:16:13;;;;;;;0.10;0.10;;;;;;;18.36;33.26;97336.63;5032735;28;20037;-67
2022/05/28 00:18:40;;;;;;;0.15;0.15;;;;;;;19.34;32.65;97335.63;5033392;28;20038;-69
2022/05/28 00:21:10;;;;;;;0.80;0.40;;;;;;;20.34;31.79;97339.16;5029664;28;20037;-65
2022/05/28 00:23:37;;;;;;;0.10;0.10;;;;;;;21.18;31.20;97325.31;5013456;28;20061;-65
2022/05/28 00:26:03;;;;;;;0.10;0.10;;;;;;;22.01;30.93;97333.09;5013566;28;20472;-66
2022/05/28 00:28:29;;;;;;;0.10;0.10;;;;;;;22.92;30.23;97326.47;5013341;28;20038;-65
2022/05/28 00:30:56;;;;;;;0.10;0.10;;;;;;;23.72;29.62;97324.84;5014354;28;20041;-66
2022/05/28 00:33:22;;;;;;;0.10;0.10;;;;;;;24.42;29.11;97319.84;5033005;28;20044;-66
2022/05/28 00:35:48;;;;;;;0.10;0.10;;;;;;;25.18;28.80;97323.25;5020913;28;20045;-66
2022/05/28 00:38:15;;;;;;;0.40;0.40;;;;;;;25.76;28.42;97320.81;5013335;28;20042;-65
2022/05/28 00:40:48;;;;;;;0.20;0.20;;;;;;;26.22;28.63;97324.53;5013012;28;20108;-65
2022/05/28 00:43:15;;;;;;;0.32;0.32;;;;;;;26.61;28.24;97320.75;5013059;28;20503;-67
2022/05/28 00:45:41;;;;;;;0.28;0.28;;;;;;;26.52;28.60;97323.81;5011668;28;20045;-64
2022/05/28 00:48:09;;;;;;;0.20;0.20;;;;;;;26.76;28.77;97318.97;5011308;28;20403;-65
2022/05/28 00:50:36;;;;;;;0.10;0.10;;;;;;;27.21;28.36;97322.84;5012325;28;20061;-65
2022/05/28 00:53:04;;;;;;;0.10;0.10;;;;;;;27.81;28.08;97321.16;5012283;28;20042;-65
2022/05/28 00:55:34;;;;;;;0.10;0.10;;;;;;;28.41;27.52;97316.56;5012435;28;20570;-65
2022/05/28 00:58:04;;;;;;;0.20;0.20;;;;;;;29.00;27.02;97320.25;5012544;28;20061;-66
2022/05/28 01:00:29;;;;;;;0.10;0.10;;;;;;;29.38;26.87;97322.09;5011921;28;20041;-64
2022/05/28 01:03:08;;;;;;;0.10;0.10;;;;;;;29.64;26.58;97307.66;5012234;28;20042;-66
2022/05/28 01:05:52;;;;;;;0.10;0.10;;;;;;;29.87;26.52;97306.53;5012230;28;20048;-66
2022/05/28 01:08:30;;;;;;;0.30;0.30;;;;;;;30.18;26.42;97304.16;5012148;28;20496;-67
2022/05/28 01:11:12;;;;;;;0.10;0.10;;;;;;;30.37;26.51;97300.13;5012528;28;20037;-67
2022/05/28 01:14:12;;;;;;;0.30;0.30;;;;;;;30.79;26.18;97303.41;5011284;28;20115;-67
2022/05/28 01:16:47;;;;;;;0.10;0.10;;;;;;;31.27;25.84;97309.38;5011393;28;20520;-66
2022/05/28 01:19:50;;;;;;;0.10;0.10;;;;;;;31.57;25.55;97310.13;5012293;28;20120;-66
2022/05/28 01:22:22;;;;;;;0.10;0.10;;;;;;;31.81;25.54;97318.91;5011759;28;20120;-65
2022/05/28 01:25:02;;;;;;;0.10;0.10;;;;;;;32.13;25.26;97313.88;5011680;28;20053;-66
2022/05/28 01:27:34;;;;;;;0.10;0.10;;;;;;;32.47;25.10;97296.19;5012532;28;20044;-67
2022/05/28 01:30:04;;;;;;;0.10;0.10;;;;;;;32.83;24.73;97298.75;5012010;28;20037;-64
2022/05/28 01:32:33;;;;;;;0.10;0.10;;;;;;;33.26;24.34;97297.50;5012259;28;20045;-64
2022/05/28 01:35:02;;;;;;;0.52;0.40;;;;;;;33.81;24.31;97304.16;5011767;28;20104;-65
2022/05/28 01:37:29;;;;;;;0.10;0.10;;;;;;;34.36;23.66;97302.13;5000842;28;20088;-66
2022/05/28 01:39:56;;;;;;;0.35;0.17;;;;;;;34.78;23.68;97293.34;5012203;28;21001;-65
2022/05/28 01:42:23;;;;;;;0.10;0.10;;;;;;;35.11;23.46;97290.69;5011963;28;20038;-65
2022/05/28 01:44:51;;;;;;;0.10;0.10;;;;;;;35.57;23.21;97288.97;5011108;28;20153;-66
2022/05/28 01:47:20;;;;;;;0.22;0.22;;;;;;;35.99;22.68;97282.00;5011702;28;20061;-67
2022/05/28 01:49:47;;;;;;;0.10;0.10;;;;;;;36.27;22.50;97277.66;5011878;28;20061;-67
2022/05/28 01:52:15;;;;;;;0.10;0.10;;;;;;;36.59;22.47;97279.72;5012058;28;20555;-66
2022/05/28 01:54:45;;;;;;;0.10;0.10;;;;;;;37.00;22.43;97284.00;5011425;28;20514;-66
2022/05/28 01:57:13;;;;;;;0.13;0.13;;;;;;;37.27;22.44;97282.88;5009165;28;20034;-66
2022/05/28 01:59:39;;;;;;;0.10;0.10;;;;;;;37.58;21.94;97282.41;5011504;28;20220;-65
2022/05/28 02:02:09;;;;;;;0.10;0.10;;;;;;;38.12;21.84;97275.06;5010540;28;20041;-65
2022/05/28 02:04:37;;;;;;;0.10;0.10;;;;;;;38.65;21.46;97283.19;5016683;28;20450;-65
2022/05/28 02:07:03;;;;;;;0.10;0.10;;;;;;;38.90;21.30;97276.59;5014751;28;20468;-67
2022/05/28 02:09:36;;;;;;;0.15;0.15;;;;;;;39.08;21.54;97270.22;5031243;28;20549;-64
2022/05/28 02:12:20;;;;;;;0.10;0.10;;;;;;;39.34;21.09;97270.13;5019935;28;20041;-65
2022/05/28 02:15:06;;;;;;;0.20;0.20;;;;;;;39.56;21.44;97273.03;5014865;28;20058;-65
2022/05/28 02:17:47;;;;;;;0.10;0.10;;;;;;;39.68;21.02;97271.34;5015499;28;20156;-65
2022/05/28 02:20:45;;;;;;;0.10;0.10;;;;;;;39.93;21.09;97272.41;5015269;28;20496;-66
2022/05/28 02:23:18;;;;;;;0.10;0.10;;;;;;;40.00;21.13;97271.34;5018832;28;20033;-67
2022/05/28 02:25:47;;;;;;;;;;;;;;;40.06;21.28;97267.44;5035204;28;20075;-67
2022/05/28 02:28:14;;;;;;;0.10;0.10;;;;;;;40.36;21.10;97270.72;5035160;28;20019;-69
2022/05/28 02:30:53;;;;;;;0.30;0.30;;;;;;;40.54;20.99;97266.34;5035131;28;20091;-66
2022/05/28 02:33:20;;;;;;;0.10;0.10;;;;;;;40.23;21.42;97267.97;5035237;28;20037;-68
2022/05/28 02:35:45;;;;;;;0.10;0.10;;;;;;;40.18;21.36;97274.34;5035179;28;20102;-68
2022/05/28 02:38:13;;;;;;;0.10;0.10;;;;;;;38.84;22.71;97266.97;5035006;28;20488;-69
2022/05/28 02:40:38;;;;;;;0.40;0.40;;;;;;;38.31;22.83;97276.09;5050330;28;20375;-68
2022/05/28 02:43:04;;;;;;;0.20;0.20;;;;;;;36.52;24.30;97276.25;5035347;28;20033;-69
2022/05/28 02:45:30;;;;;;;0.10;0.10;;;;;;;35.18;25.53;97270.59;5034704;28;20218;-68
2022/05/28 02:47:56;;;;;;;0.20;0.20;;;;;;;34.36;26.30;97267.94;5035113;28;20041;-71
2022/05/28 02:50:26;;;;;;;0.10;0.10;;;;;;;34.80;25.51;97261.53;5034845;28;20492;-70
2022/05/28 02:52:52;;;;;;;0.10;0.10;;;;;;;34.88;25.27;97266.69;5034342;28;20132;-68
2022/05/28 02:55:18;;;;;;;0.10;0.10;;;;;;;34.42;25.47;97258.91;5034500;28;20682;-69
2022/05/28 02:57:44;;;;;;;0.10;0.10;;;;;;;33.07;26.85;97266.78;5034499;28;20039;-70
2022/05/28 03:00:19;;;;;;;0.30;0.30;;;;;;;31.67;28.24;97255.34;5025218;28;20083;-67
2022/05/28 03:02:45;;;;;;;0.10;0.10;;;;;;;31.12;28.40;97250.31;5014648;28;20084;-70
2022/05/28 03:05:13;;;;;;;0.10;0.10;;;;;;;31.30;28.25;97253.84;5014410;28;20042;-71
2022/05/28 03:07:39;;;;;;;0.13;0.13;;;;;;;31.59;27.32;97256.59;5029629;28;20033;-69
2022/05/28 03:10:05;;;;;;;0.10;0.10;;;;;;;33.38;25.19;97261.19;5017062;28;20088;-66
2022/05/28 03:12:31;;;;;;;0.10;0.10;;;;;;;35.35;23.52;97256.41;5014625;28;20497;-68
2022/05/28 03:14:56;;;;;;;0.10;0.10;;;;;;;36.59;22.23;97254.00;5014334;28;20104;-71
2022/05/28 03:17:28;;;;;;;0.28;0.28;;;;;;;37.85;20.95;97244.78;5019255;28;20034;-70
2022/05/28 03:19:54;;;;;;;0.10;0.10;;;;;;;38.04;20.93;97257.25;5046139;28;20033;-70
2022/05/28 03:22:19;;;;;;;0.17;0.17;;;;;;;39.28;20.35;97257.63;5022092;28;20570;-71
2022/05/28 03:24:45;;;;;;;0.10;0.10;;;;;;;40.16;19.73;97259.63;5014382;28;20049;-72
2022/05/28 03:27:11;;;;;;;0.10;0.10;;;;;;;40.60;19.63;97252.91;5014080;28;20068;-70
2022/05/28 03:29:36;;;;;;;0.10;0.10;;;;;;;41.04;19.44;97264.19;5012699;28;20144;-70
2022/05/28 03:32:02;;;;;;;0.20;0.20;;;;;;;40.39;20.00;97252.53;5013772;28;20036;-71
2022/05/28 03:34:28;;;;;;;0.10;0.10;;;;;;;38.80;21.37;97256.91;5014150;28;20120;-71
2022/05/28 03:36:54;;;;;;;0.30;0.30;;;;;;;36.53;23.74;97258.66;5013914;28;21814;-69
2022/05/28 03:39:19;;;;;;;0.20;0.20;;;;;;;33.73;26.50;97256.25;5014002;28;20041;-70
2022/05/28 03:41:45;;;;;;;0.63;0.63;;;;;;;32.47;27.54;97256.41;5014435;28;20377;-71
2022/05/28 03:44:50;;;;;;;0.10;0.10;;;;;;;32.80;26.88;97242.75;5014041;28;20041;-70
2022/05/28 03:47:56;;;;;;;0.10;0.10;;;;;;;32.06;27.42;97245.75;5012978;28;20108;-70
2022/05/28 03:51:02;;;;;;;0.10;0.10;;;;;;;32.50;26.62;97246.25;5013096;28;20037;-71
2022/05/28 03:56:55;;;;;;;0.10;0.10;;;;;;;35.22;23.67;97239.16;5013926;28;20088;-70
2022/05/28 03:59:20;;;;;;;0.10;0.10;;;;;;;35.91;22.65;97250.75;5013972;28;20033;-75
2022/05/28 04:01:46;;;;;;;0.10;0.10;;;;;;;37.46;21.72;97246.75;5028411;28;20036;-69
2022/05/28 04:04:12;;;;;;;0.10;0.10;;;;;;;39.12;20.07;97241.44;5014057;28;20062;-71
2022/05/28 04:06:38;;;;;;;0.10;0.10;;;;;;;39.45;20.31;97245.97;5015646;28;20045;-69
2022/05/28 04:09:04;;;;;;;0.10;0.10;;;;;;;37.75;22.00;97245.09;5017487;28;20041;-70
2022/05/28 04:11:30;;;;;;;8.57;0.40;;;;;;;35.31;24.05;97241.41;5016060;28;20046;-69
2022/05/28 04:13:56;;;;;;;0.20;0.20;;;;;;;32.87;26.71;97246.72;5017162;28;20140;-68
2022/05/28 04:16:22;;;;;;;0.10;0.10;;;;;;;30.84;28.51;97243.47;5024640;28;20099;-68
2022/05/28 04:18:48;;;;;;;0.13;0.13;;;;;;;29.16;30.50;97249.28;5021687;28;20050;-69
2022/05/28 04:21:13;;;;;;;0.10;0.10;;;;;;;27.98;31.85;97240.81;5024502;28;20064;-69
2022/05/28 04:23:39;;;;;;;0.28;0.28;;;;;;;27.13;32.01;97238.63;5023467;28;20038;-69
2022/05/28 04:26:05;;;;;;;0.10;0.10;;;;;;;26.42;32.47;97239.22;5021317;28;20393;-71
2022/05/28 04:28:31;;;;;;;0.10;0.10;;;;;;;25.88;32.77;97227.84;5016174;28;20046;-70
2022/05/28 04:30:57;;;;;;;0.10;0.10;;;;;;;25.52;32.98;97230.03;5023414;28;20042;-69
2022/05/28 04:33:24;;;;;;;0.30;0.30;;;;;;;25.24;33.07;97224.66;5023916;28;20491;-69
2022/05/28 04:35:49;;;;;;;0.10;0.10;;;;;;;24.97;32.98;97224.50;5023280;28;20093;-68
2022/05/28 04:38:15;;;;;;;0.10;0.10;;;;;;;24.64;32.88;97237.03;5020596;28;20042;-70
2022/05/28 04:40:41;;;;;;;0.45;0.45;;;;;;;24.31;33.04;97241.06;5022615;28;20042;-69
2022/05/28 04:43:06;;;;;;;0.40;0.40;;;;;;;24.06;33.27;97235.66;5018756;28;20029;-69
2022/05/28 04:45:32;;;;;;;0.10;0.10;;;;;;;23.84;33.27;97236.28;5016007;28;20049;-72
2022/05/28 04:47:58;;;;;;;0.22;0.20;;;;;;;23.76;33.00;97241.69;5016610;28;20543;-69
2022/05/28 04:50:23;;;;;;;0.17;0.17;;;;;;;23.72;32.94;97237.16;5014185;28;20041;-73
2022/05/28 04:52:49;;;;;;;0.10;0.10;;;;;;;23.66;32.63;97235.78;5015581;28;20402;-71
2022/05/28 04:55:15;;;;;;;0.40;0.32;;;;;;;23.85;32.46;97246.28;5028756;28;20511;-70
2022/05/28 04:57:41;;;;;;;0.20;0.20;;;;;;;24.41;31.53;97239.66;5013969;28;20045;-70
2022/05/28 05:00:12;;;;;;;0.10;0.10;;;;;;;24.94;30.81;97234.50;5011923;28;20034;-70
2022/05/28 05:02:38;;;;;;;0.20;0.20;;;;;;;25.04;30.45;97244.31;5012142;28;20038;-73
2022/05/28 05:05:05;;;;;;;0.17;0.17;;;;;;;25.24;30.21;97238.69;5012056;28;20041;-70
2022/05/28 05:07:30;;;;;;;0.17;0.17;;;;;;;26.84;28.38;97241.03;5010814;28;20420;-70
2022/05/28 05:09:56;;;;;;;0.10;0.10;;;;;;;28.42;26.90;97239.16;5011851;28;20034;-70
2022/05/28 05:12:22;;;;;;;0.10;0.10;;;;;;;29.49;25.97;97221.16;5012733;28;20037;-70
2022/05/28 05:14:48;;;;;;;0.10;0.10;;;;;;;30.33;25.45;97226.53;5011500;28;20538;-72
2022/05/28 05:17:13;;;;;;;0.22;0.22;;;;;;;31.47;24.22;97225.84;5012091;28;20033;-71
2022/05/28 05:19:39;;;;;;;0.20;0.20;;;;;;;33.13;23.10;97234.66;5012241;28;20091;-70
2022/05/28 05:22:05;;;;;;;0.15;0.15;;;;;;;34.57;21.96;97226.06;5011097;28;20477;-72
2022/05/28 05:24:33;;;;;;;0.10;0.10;;;;;;;35.70;21.26;97217.72;5011899;28;20042;-70
2022/05/28 05:27:00;;;;;;;0.10;0.10;;;;;;;36.39;21.04;97205.50;5012361;28;20030;-73
2022/05/28 05:29:26;;;;;;;0.10;0.10;;;;;;;37.29;21.11;97200.22;5028878;28;20029;-72
2022/05/28 05:31:52;;;;;;;0.10;0.10;;;;;;;37.90;20.47;97208.22;5012012;28;20061;-70
2022/05/28 05:34:18;;;;;;;0.10;0.10;;;;;;;37.28;21.49;97210.09;5011597;28;20077;-71
2022/05/28 05:36:43;;;;;;;0.20;0.20;;;;;;;35.00;23.76;97210.22;5011953;28;20040;-75
2022/05/28 05:39:09;;;;;;;0.10;0.10;;;;;;;35.26;24.07;97205.63;5011478;28;20046;-70
2022/05/28 05:41:40;;;;;;;0.10;0.10;;;;;;;34.80;24.15;97196.78;5011925;28;20037;-71
2022/05/28 05:44:06;;;;;;;0.10;0.10;;;;;;;34.44;24.63;97208.81;5010441;28;20389;-71
2022/05/28 05:46:32;;;;;;;11.60;0.80;;;;;;;32.59;26.32;97205.97;5011888;28;20037;-69
2022/05/28 05:48:58;;;;;;;0.13;0.13;;;;;;;30.48;28.52;97209.56;5015512;28;20038;-69
2022/05/28 05:51:23;;;;;;;0.90;0.90;;;;;;;28.93;30.23;97204.38;5016261;28;20034;-69
2022/05/28 05:53:49;;;;;;;0.47;0.47;;;;;;;27.43;31.65;97202.78;5015165;28;20046;-69
2022/05/28 05:56:15;;;;;;;0.10;0.10;;;;;;;26.45;32.39;97197.06;5015669;28;20026;-72
2022/05/28 05:58:40;;;;;;;0.45;0.45;;;;;;;25.46;33.53;97186.59;5015233;28;20488;-73
2022/05/28 06:01:07;;;;;;;0.10;0.10;;;;;;;24.58;34.01;97190.78;5015137;28;20539;-72
2022/05/28 06:03:33;;;;;;;0.13;0.13;;;;;;;24.06;34.15;97187.19;5015686;28;20042;-71
2022/05/28 06:06:01;;;;;;;0.20;0.20;;;;;;;23.75;34.17;97184.00;5015297;28;20516;-71
2022/05/28 06:08:28;;;;;;;0.10;0.10;;;;;;;23.50;34.31;97185.34;5015505;28;20084;-71
2022/05/28 06:10:53;;;;;;;0.10;0.10;;;;;;;23.35;33.94;97187.78;5014176;28;20037;-70
2022/05/28 06:13:19;;;;;;;0.40;0.40;;;;;;;23.23;33.84;97188.66;5015501;28;20141;-71
2022/05/28 06:15:45;;;;;;;0.20;0.20;;;;;;;23.14;33.83;97188.00;5015032;28;20064;-71
2022/05/28 06:18:13;;;;;;;0.13;0.13;;;;;;;23.12;33.54;97178.34;5015250;28;20125;-71
2022/05/28 06:20:39;;;;;;;0.30;0.30;;;;;;;23.17;33.43;97187.28;5015132;28;20125;-71
2022/05/28 06:23:04;;;;;;;0.15;0.15;;;;;;;23.08;33.18;97187.41;5015377;28;20133;-70
2022/05/28 06:25:30;;;;;;;0.10;0.10;;;;;;;22.97;33.43;97193.88;5014879;28;20045;-71
2022/05/28 06:27:57;;;;;;;0.10;0.10;;;;;;;22.85;33.27;97181.56;5014475;28;20050;-71
2022/05/28 06:30:23;;;;;;;0.10;0.10;;;;;;;22.82;33.47;97176.69;5014303;28;20045;-71
2022/05/28 06:32:49;;;;;;;0.13;0.13;;;;;;;22.93;33.16;97166.59;5015356;28;20068;-69
2022/05/28 06:35:15;;;;;;;0.30;0.30;;;;;;;22.98;33.05;97181.50;5012557;28;20034;-69
2022/05/28 06:37:41;;;;;;;0.20;0.20;;;;;;;22.98;32.80;97179.56;4995589;28;20497;-70
2022/05/28 06:40:07;;;;;;;0.10;0.10;;;;;;;22.96;33.06;97164.28;4995382;28;20492;-70
2022/05/28 06:42:33;;;;;;;0.20;0.20;;;;;;;22.86;32.85;97166.41;4995521;28;20130;-71
2022/05/28 06:44:59;;;;;;;1.27;0.30;;;;;;;22.66;33.34;97161.81;4995343;28;20401;-70
2022/05/28 06:51:01;;;;;;;0.20;0.20;;;;;;;22.49;33.23;97168.53;5016720;28;20091;-69
2022/05/28 06:53:28;;;;;;;0.20;0.20;;;;;;;22.63;32.80;97166.16;5034895;28;20076;-73
2022/05/28 06:55:54;;;;;;;0.10;0.10;;;;;;;22.84;32.90;97167.94;5014918;28;20116;-68
2022/05/28 06:58:20;;;;;;;0.22;0.20;;;;;;;23.07;32.31;97170.97;5014267;28;20036;-67
2022/05/28 07:00:46;;;;;;;0.30;0.30;;;;;;;23.22;32.38;97164.63;5015049;28;20033;-68
2022/05/28 07:03:14;;;;;;;0.10;0.10;;;;;;;23.26;32.22;97168.34;5014457;28;20076;-68
2022/05/28 07:05:40;;;;;;;0.65;0.52;;;;;;;23.31;32.28;97167.25;5014625;28;20128;-69
2022/05/28 07:08:06;;;;;;;0.10;0.10;;;;;;;23.49;32.23;97161.31;5022508;28;20514;-67
2022/05/28 07:10:32;;;;;;;0.20;0.20;;;;;;;23.61;31.89;97164.03;5031870;28;20116;-68
2022/05/28 07:12:57;;;;;;;1.27;0.43;;;;;;;23.57;32.16;97163.13;5017932;28;20037;-69
2022/05/28 07:15:24;;;;;;;0.10;0.10;;;;;;;23.52;32.31;97166.19;5032467;28;20422;-69
2022/05/28 07:18:29;;;;;;;0.20;0.20;;;;;;;23.31;32.37;97163.66;5024493;28;20092;-67
2022/05/28 07:21:34;;;;;;;0.10;0.10;;;;;;;22.91;33.08;97157.75;5007360;28;20485;-69
2022/05/28 07:34:13;;;;;;;0.22;0.22;;;;;;;22.63;33.37;97159.72;5007938;28;20052;-71
2022/05/28 07:36:38;;;;;;;0.22;0.22;;;;;;;22.78;33.36;97158.97;5007756;28;20034;-70
2022/05/28 07:39:05;;;;;;;0.20;0.20;;;;;;;22.79;33.34;97165.38;5014605;28;20408;-71
2022/05/28 07:41:31;;;;;;;0.28;0.28;;;;;;;22.75;33.55;97168.91;5018184;28;20419;-73
2022/05/28 07:43:57;;;;;;;0.20;0.20;;;;;;;22.73;33.42;97174.03;5033948;28;20128;-70
2022/05/28 07:46:29;;;;;;;0.10;0.10;;;;;;;22.70;33.63;97169.16;5033279;28;20547;-72
2022/05/28 07:48:56;;;;;;;0.10;0.10;;;;;;;22.66;33.71;97171.03;5032763;28;20039;-72
2022/05/28 07:51:22;;;;;;;0.10;0.10;;;;;;;22.61;33.76;97170.47;5032104;28;20159;-70
2022/05/28 07:53:48;;;;;;;0.75;0.30;;;;;;;22.62;33.59;97172.09;5018765;28;20408;-71
2022/05/28 07:56:14;;;;;;;0.20;0.20;;;;;;;22.51;34.01;97171.75;5027380;28;20049;-69
2022/05/28 07:58:41;;;;;;;0.17;0.17;;;;;;;22.36;34.24;97162.97;5030536;28;20034;-69
2022/05/28 08:01:09;;;;;;;1.10;1.10;;;;;;;22.29;34.55;97167.47;5012628;28;20515;-67
2022/05/28 08:03:35;;;;;;;0.32;0.32;;;;;;;22.14;34.61;97174.59;5012658;28;20030;-75
2022/05/28 08:06:01;;;;;;;0.32;0.32;;;;;;;22.00;34.76;97186.97;5012624;28;20484;-72
2022/05/28 08:08:28;;;;;;;0.20;0.20;;;;;;;21.90;35.04;97178.25;5017337;28;20396;-72
2022/05/28 08:10:54;;;;;;;0.45;0.45;;;;;;;21.76;35.28;97179.41;5013324;28;20034;-70
2022/05/28 08:13:23;;;;;;;6.93;0.25;;;;;;;21.63;35.56;97169.41;5014963;28;20041;-69
2022/05/28 08:15:52;;;;;;;0.30;0.30;;;;;;;21.59;35.52;97166.47;5012619;28;20034;-68
2022/05/28 08:18:20;;;;;;;0.30;0.20;;;;;;;21.62;35.25;97165.78;5013389;28;20030;-70
2022/05/28 08:23:30;;;;;;;;;;;;;;;21.59;35.15;97174.84;5014090;28;20041;-68
2022/05/28 08:25:56;;;;;;;0.25;0.25;;;;;;;21.67;35.13;97173.94;5013091;28;19917;-69
2022/05/28 08:28:22;;;;;;;0.10;0.10;;;;;;;21.85;34.71;97179.31;5013165;28;20561;-69
2022/05/28 08:30:48;;;;;;;2.72;0.90;;;;;;;21.95;34.83;97178.84;5013018;28;20034;-70
2022/05/28 08:33:16;;;;;;;0.55;0.50;;;;;;;22.00;34.73;97186.16;5013273;28;20030;-69
2022/05/28 08:35:43;;;;;;;0.40;0.40;;;;;;;21.94;34.84;97187.56;5013098;28;20057;-68
2022/05/28 08:38:14;;;;;;;0.35;0.30;;;;;;;21.75;35.55;97188.94;5012803;28;20038;-70
2022/05/28 08:40:51;;;;;;;0.40;0.40;;;;;;;21.44;36.25;97197.84;5013161;28;20079;-68
2022/05/28 08:43:18;;;;;;;0.10;0.10;;;;;;;21.05;36.96;97197.25;5013335;28;20040;-68
2022/05/28 08:45:48;;;;;;;0.10;0.10;;;;;;;20.90;37.58;97191.16;5012206;28;20103;-72
2022/05/28 08:48:17;;;;;;;0.28;0.28;;;;;;;20.81;37.70;97196.81;5013167;28;20061;-70
2022/05/28 08:51:05;;;;;;;0.20;0.20;;;;;;;20.76;37.99;97205.41;5013022;28;20040;-69
2022/05/28 08:53:36;;;;;;;0.22;0.22;;;;;;;20.83;38.06;97193.69;5012836;28;20034;-71
2022/05/28 08:56:04;;;;;;;0.20;0.20;;;;;;;20.98;37.91;97192.25;5013106;28;20092;-73
2022/05/28 08:58:32;;;;;;;0.10;0.10;;;;;;;21.15;37.69;97191.25;5012987;28;20036;-73
2022/05/28 09:01:12;;;;;;;0.60;0.40;;;;;;;21.39;37.47;97195.25;5013056;28;20038;-69
2022/05/28 09:03:50;;;;;;;0.15;0.15;;;;;;;21.74;37.18;97189.28;5032796;28;20511;-71
2022/05/28 09:06:24;;;;;;;0.47;0.22;;;;;;;22.14;36.67;97186.63;5032312;28;20049;-70
2022/05/28 09:08:53;;;;;;;0.10;0.10;;;;;;;22.55;36.17;97181.09;5018386;28;20396;-72
2022/05/28 09:11:25;;;;;;;0.10;0.10;;;;;;;22.95;35.58;97185.84;5026395;28;20072;-70
2022/05/28 09:13:53;;;;;;;0.13;0.13;;;;;;;23.32;35.23;97187.66;5030698;28;20053;-70
2022/05/28 09:16:27;;;;;;;0.10;0.10;;;;;;;23.65;35.08;97187.34;5012168;28;20038;-73
2022/05/28 09:18:55;;;;;;;0.20;0.20;;;;;;;23.63;35.11;97181.31;5021073;28;20040;-70
2022/05/28 09:21:21;;;;;;;0.10;0.10;;;;;;;23.39;35.62;97185.88;5025900;28;20046;-68
2022/05/28 09:23:57;;;;;;;0.13;0.13;;;;;;;23.12;35.63;97176.34;5032375;28;20029;-71
2022/05/28 09:26:52;;;;;;;0.47;0.30;;;;;;;22.84;36.28;97188.34;5012349;28;20389;-70
2022/05/28 09:29:47;;;;;;;0.52;0.35;;;;;;;22.59;36.50;97184.81;5020682;28;20038;-69
2022/05/28 09:32:24;;;;;;;0.20;0.20;;;;;;;22.42;36.96;97183.09;5032929;28;20492;-68
2022/05/28 09:35:14;;;;;;;0.20;0.20;;;;;;;22.31;36.95;97184.72;5013625;28;20038;-70
2022/05/28 09:38:01;;;;;;;0.25;0.25;;;;;;;22.32;36.80;97178.81;5008008;28;20133;-69
2022/05/28 09:40:51;;;;;;;0.22;0.22;;;;;;;22.27;36.91;97179.00;5014531;28;20046;-71
2022/05/28 09:43:32;;;;;;;0.10;0.10;;;;;;;22.12;37.15;97183.34;5016058;28;20488;-72
2022/05/28 09:46:06;;;;;;;0.10;0.10;;;;;;;21.95;37.22;97194.75;5004261;28;20041;-69
2022/05/28 09:48:32;;;;;;;8.20;0.40;;;;;;;21.73;37.42;97196.03;5002013;28;20133;-69
2022/05/28 09:50:58;;;;;;;0.20;0.20;;;;;;;21.57;37.86;97199.53;5000829;28;20037;-69
2022/05/28 09:56:36;;;;;;;0.10;0.10;;;;;;;21.33;37.98;97209.47;5003493;28;20037;-71
2022/05/28 09:59:18;;;;;;;0.35;0.35;;;;;;;21.26;38.12;97214.78;4994111;28;20404;-71
2022/05/28 10:02:07;;;;;;;0.10;0.10;;;;;;;21.16;38.02;97213.22;5009524;28;20115;-73
2022/05/28 10:05:09;;;;;;;0.30;0.30;;;;;;;21.03;38.12;97227.50;5023524;28;20041;-71
2022/05/28 10:07:42;;;;;;;0.10;0.10;;;;;;;20.88;38.27;97231.72;5019286;28;20076;-68
2022/05/28 10:10:22;;;;;;;8.57;0.93;;;;;;;20.80;38.29;97230.63;5030716;28;20492;-68
2022/05/28 10:12:48;;;;;;;0.25;0.25;;;;;;;20.74;38.37;97232.00;5030420;28;20064;-68
2022/05/28 10:15:21;;;;;;;0.55;0.20;;;;;;;20.70;38.40;97226.28;5030045;28;20488;-67
2022/05/28 10:18:00;;;;;;;0.65;0.65;;;;;;;20.71;38.53;97243.84;5030478;28;20120;-68
2022/05/28 10:20:27;;;;;;;0.13;0.13;;;;;;;20.68;38.59;97258.47;5030515;28;20045;-68
2022/05/28 10:22:56;;;;;;;0.40;0.30;;;;;;;20.78;38.22;97258.06;5030647;28;20433;-68
2022/05/28 10:25:47;;;;;;;0.30;0.30;;;;;;;20.78;38.48;97267.22;5029896;28;20079;-68
2022/05/28 10:28:13;;;;;;;0.20;0.20;;;;;;;20.90;38.07;97268.47;5030323;28;20514;-68
2022/05/28 10:30:42;;;;;;;0.35;0.35;;;;;;;20.92;38.33;97266.13;5023049;28;20049;-68
2022/05/28 10:33:19;;;;;;;0.22;0.22;;;;;;;20.78;38.63;97267.22;5008879;28;20119;-68
2022/05/28 10:35:46;;;;;;;0.20;0.20;;;;;;;20.59;38.92;97270.44;5011662;28;20400;-70
2022/05/28 10:38:30;;;;;;;0.55;0.55;;;;;;;20.36;39.24;97283.06;5012097;28;20034;-67
2022/05/28 10:41:02;;;;;;;0.40;0.40;;;;;;;20.12;39.79;97282.53;5012125;28;20041;-69
2022/05/28 10:43:38;;;;;;;0.10;0.10;;;;;;;20.06;39.87;97281.06;5011915;28;20034;-71
2022/05/28 10:46:42;;;;;;;0.20;0.20;;;;;;;19.95;39.86;97280.66;5011561;28;20152;-70
2022/05/28 10:49:22;;;;;;;0.23;0.23;;;;;;;19.91;39.93;97279.66;5006512;28;20129;-71
2022/05/28 10:52:24;;;;;;;0.10;0.10;;;;;;;19.96;39.87;97295.38;5011467;28;20124;-72
2022/05/28 10:55:42;;;;;;;0.10;0.10;;;;;;;19.76;39.92;97297.72;5011926;28;20038;-72
2022/05/28 10:58:13;;;;;;;0.75;0.63;;;;;;;19.80;39.83;97297.88;5010540;28;20053;-69
2022/05/28 11:01:05;;;;;;;0.30;0.30;;;;;;;20.11;39.42;97305.97;5011521;28;20030;-73
2022/05/28 11:04:00;;;;;;;0.20;0.20;;;;;;;20.38;39.08;97303.06;5009624;28;20033;-67
2022/05/28 11:06:53;;;;;;;0.20;0.20;;;;;;;20.59;38.64;97306.69;5011327;28;20547;-70
2022/05/28 11:09:31;;;;;;;0.38;0.38;;;;;;;20.63;38.60;97307.66;5009935;28;20076;-68
2022/05/28 11:12:28;;;;;;;0.30;0.30;;;;;;;20.49;38.89;97307.09;4994286;28;20042;-69
2022/05/28 11:15:32;;;;;;;0.17;0.17;;;;;;;20.30;39.12;97305.56;4994243;28;20452;-67
2022/05/28 11:18:19;;;;;;;0.32;0.32;;;;;;;20.01;39.63;97308.31;4995944;28;20092;-66
2022/05/28 11:21:01;;;;;;;0.10;0.10;;;;;;;19.76;40.25;97305.28;4994109;28;20061;-69
2022/05/28 11:23:40;;;;;;;0.22;0.22;;;;;;;19.56;40.57;97306.78;4994401;28;20031;-66
2022/05/28 11:26:08;;;;;;;0.10;0.10;;;;;;;19.52;40.59;97309.41;4993609;28;20038;-70
2022/05/28 11:28:46;;;;;;;0.60;0.60;;;;;;;19.58;40.35;97301.69;4994177;28;20069;-71
2022/05/28 11:31:18;;;;;;;0.13;0.13;;;;;;;19.61;40.21;97301.84;4994674;28;20089;-71
2022/05/28 11:33:47;;;;;;;0.25;0.25;;;;;;;19.57;40.29;97306.44;4996241;28;20042;-69
2022/05/28 11:36:19;;;;;;;0.30;0.30;;;;;;;19.54;40.36;97312.69;4995366;28;20038;-70
2022/05/28 11:38:50;;;;;;;0.20;0.20;;;;;;;19.51;40.39;97316.13;4993846;28;20105;-70
2022/05/28 11:41:34;;;;;;;0.20;0.20;;;;;;;19.54;40.27;97309.09;4994510;28;20042;-69
2022/05/28 11:44:12;;;;;;;0.10;0.10;;;;;;;19.58;39.94;97308.09;4993894;28;20035;-73
2022/05/28 11:46:46;;;;;;;0.30;0.30;;;;;;;19.53;40.14;97305.47;4994267;28;20100;-68
2022/05/28 11:52:15;;;;;;;4.82;0.50;;;;;;;19.33;40.50;97306.16;5014579;28;20072;-72
2022/05/28 11:54:51;;;;;;;0.30;0.28;;;;;;;19.33;40.49;97311.72;5013760;28;20040;-73
2022/05/28 11:57:28;;;;;;;0.35;0.35;;;;;;;19.45;40.20;97311.88;5012552;28;20026;-74
2022/05/28 11:59:55;;;;;;;0.47;0.35;;;;;;;19.65;39.87;97317.91;5013897;28;20038;-73
2022/05/28 12:02:28;;;;;;;0.20;0.20;;;;;;;19.76;39.70;97310.84;5045442;28;20061;-72
2022/05/28 12:04:54;;;;;;;0.30;0.30;;;;;;;19.85;39.47;97314.44;5013620;28;20042;-71
2022/05/28 12:07:39;;;;;;;0.20;0.20;;;;;;;19.92;39.43;97311.13;5013194;28;20038;-69
2022/05/28 12:10:08;;;;;;;;;;;;;;;20.00;39.24;97315.03;5013821;28;20030;-71
2022/05/28 12:12:50;;;;;;;0.30;0.30;;;;;;;20.02;39.40;97318.31;5013436;28;19917;-77
2022/05/28 12:15:16;;;;;;;0.60;0.57;;;;;;;20.03;39.36;97320.75;5012829;28;20062;-72
2022/05/28 12:17:55;;;;;;;0.10;0.10;;;;;;;20.02;39.54;97307.16;5045007;28;20125;-70
2022/05/28 12:20:33;;;;;;;0.32;0.20;;;;;;;20.11;39.11;97313.50;5044999;28;20068;-76